createdAt,value
2022-08-12T00:00:02.336Z,9.82
2022-08-12T00:02:46.295Z,10.37
2022-08-12T00:05:31.881Z,13.27
2022-08-12T00:08:14.519Z,8.77
2022-08-12T00:10:56.666Z,10.55
2022-08-12T00:13:38.807Z,11.55
2022-08-12T00:16:21.195Z,10.67
2022-08-12T00:19:03.271Z,16.20
2022-08-12T00:21:48.222Z,11.30
2022-08-12T00:24:30.301Z,15.35
2022-08-12T00:27:13.221Z,10.83
2022-08-12T00:29:55.739Z,13.45
2022-08-12T00:32:38.452Z,13.00
2022-08-12T00:35:23.539Z,9.88
2022-08-12T00:38:12.797Z,11.80
2022-08-12T00:40:55.716Z,9.57
2022-08-12T00:43:27.419Z,17.40
2022-08-12T00:46:10.067Z,8.75
2022-08-12T00:48:40.056Z,9.10
2022-08-12T00:51:11.640Z,11.63
2022-08-12T00:53:44.087Z,15.20
2022-08-12T00:56:13.734Z,12.23
2022-08-12T00:58:50.911Z,9.20
2022-08-12T01:01:21.128Z,10.52
2022-08-12T01:04:04.668Z,10.25
2022-08-12T01:06:54.132Z,14.68
2022-08-12T01:09:39.389Z,10.32
2022-08-12T01:12:09.466Z,10.13
2022-08-12T01:14:40.900Z,9.40
2022-08-12T01:17:10.868Z,10.00
2022-08-12T01:19:40.723Z,12.02
2022-08-12T01:22:25.864Z,13.45
2022-08-12T01:25:08.194Z,10.50
2022-08-12T01:27:39.193Z,11.50
2022-08-12T01:30:11.520Z,15.80
2022-08-12T01:32:43.647Z,11.23
2022-08-12T01:35:16.371Z,12.90
2022-08-12T01:37:50.041Z,15.77
2022-08-12T01:40:36.046Z,11.75
2022-08-12T01:43:09.676Z,11.70
2022-08-12T01:45:44.294Z,12.30
2022-08-12T01:48:22.731Z,12.10
2022-08-12T01:51:04.544Z,11.13
2022-08-12T01:53:50.168Z,10.33
2022-08-12T01:56:25.970Z,9.67
2022-08-12T01:59:12.642Z,9.63
2022-08-12T02:01:43.400Z,10.25
2022-08-12T02:04:34.149Z,12.23
2022-08-12T02:07:23.910Z,10.60
2022-08-12T02:10:49.470Z,9.65
2022-08-12T02:13:13.395Z,13.07
2022-08-12T02:15:48.484Z,11.82
2022-08-12T02:18:29.498Z,12.27
2022-08-12T02:21:04.937Z,9.90
2022-08-12T02:23:36.384Z,13.68
2022-08-12T02:26:08.529Z,10.98
2022-08-12T02:28:42.283Z,10.20
2022-08-12T02:31:12.629Z,13.77
2022-08-12T02:33:42.827Z,10.23
2022-08-12T02:36:12.855Z,11.70
2022-08-12T02:38:45.556Z,12.52
2022-08-12T02:41:18.773Z,12.25
2022-08-12T02:43:54.388Z,12.70
2022-08-12T02:46:29.203Z,11.07
2022-08-12T02:49:01.900Z,11.30
2022-08-12T02:51:33.871Z,11.20
2022-08-12T02:54:06.575Z,11.77
2022-08-12T02:56:37.817Z,11.25
2022-08-12T02:59:12.375Z,10.77
2022-08-12T03:01:48.137Z,13.20
2022-08-12T03:04:23.245Z,11.38
2022-08-12T03:06:56.936Z,11.80
2022-08-12T03:09:27.582Z,13.57
2022-08-12T03:12:09.607Z,12.18
2022-08-12T03:14:47.493Z,11.93
2022-08-12T03:17:20.950Z,11.30
2022-08-12T03:20:09.473Z,13.82
2022-08-12T03:22:42.681Z,12.32
2022-08-12T03:25:16.325Z,11.70
2022-08-12T03:27:49.913Z,11.27
2022-08-12T03:30:23.618Z,11.75
2022-08-12T03:32:54.459Z,15.35
2022-08-12T03:35:40.980Z,12.18
2022-08-12T03:38:16.128Z,13.45
2022-08-12T03:41:07.699Z,15.32
2022-08-12T03:44:00.257Z,14.73
2022-08-12T03:46:49.001Z,12.77
2022-08-12T03:49:31.329Z,12.05
2022-08-12T03:52:14.014Z,13.10
2022-08-12T03:54:56.119Z,10.23
2022-08-12T03:57:38.378Z,14.10
2022-08-12T04:00:26.004Z,13.40
2022-08-12T04:03:01.853Z,13.00
2022-08-12T04:05:56.204Z,12.88
2022-08-12T04:08:25.984Z,13.40
2022-08-12T04:11:08.992Z,12.52
2022-08-12T04:13:38.779Z,11.80
2022-08-12T04:16:10.188Z,13.93
2022-08-12T04:18:42.910Z,11.60
2022-08-12T04:21:16.085Z,11.10
2022-08-12T04:23:48.574Z,12.80
2022-08-12T04:26:19.056Z,16.00
2022-08-12T04:28:48.758Z,13.45
2022-08-12T04:31:18.546Z,13.07
2022-08-12T04:33:50.947Z,12.82
2022-08-12T04:36:20.817Z,12.10
2022-08-12T04:38:50.604Z,11.95
2022-08-12T04:41:21.316Z,11.25
2022-08-12T04:43:54.506Z,17.73
2022-08-12T04:46:34.602Z,14.80
2022-08-12T04:49:07.991Z,15.38
2022-08-12T04:51:38.155Z,12.13
2022-08-12T04:54:08.118Z,11.93
2022-08-12T04:56:37.788Z,13.23
2022-08-12T04:59:07.805Z,14.30
2022-08-12T05:01:37.469Z,13.15
2022-08-12T05:04:10.917Z,14.48
2022-08-12T05:06:40.794Z,13.55
2022-08-12T05:09:10.980Z,13.45
2022-08-12T05:11:53.706Z,16.60
2022-08-12T05:14:24.021Z,17.27
2022-08-12T05:16:53.786Z,12.45
2022-08-12T05:19:26.751Z,16.30
2022-08-12T05:21:56.535Z,15.40
2022-08-12T05:24:26.233Z,12.80
2022-08-12T05:26:56.129Z,14.03
2022-08-12T05:30:06.267Z,13.68
2022-08-12T05:32:20.687Z,13.50
2022-08-12T05:34:53.496Z,14.73
2022-08-12T05:37:23.723Z,13.75
2022-08-12T05:39:53.647Z,13.80
2022-08-12T05:42:32.489Z,13.82
2022-08-12T05:45:04.512Z,11.00
2022-08-12T05:47:44.774Z,13.65
2022-08-12T05:50:26.555Z,13.35
2022-08-12T05:52:56.185Z,14.10
2022-08-12T05:55:31.095Z,16.63
2022-08-12T05:58:01.674Z,13.55
2022-08-12T06:00:32.079Z,14.90
2022-08-12T06:03:03.626Z,14.37
2022-08-12T06:05:51.810Z,15.93
2022-08-12T06:08:26.818Z,16.88
2022-08-12T06:10:57.193Z,12.23
2022-08-12T06:13:52.925Z,12.77
2022-08-12T06:16:18.926Z,13.50
2022-08-12T06:18:48.952Z,13.65
2022-08-12T06:21:23.424Z,12.67
2022-08-12T06:23:54.502Z,14.05
2022-08-12T06:26:24.151Z,15.93
2022-08-12T06:28:54.380Z,15.57
2022-08-12T06:31:26.966Z,13.32
2022-08-12T06:35:09.167Z,12.02
2022-08-12T06:36:50.533Z,14.00
2022-08-12T06:39:20.477Z,13.32
2022-08-12T06:42:32.102Z,12.25
2022-08-12T06:44:52.540Z,12.57
2022-08-12T06:47:22.200Z,14.55
2022-08-12T06:49:52.492Z,12.80
2022-08-12T06:52:25.128Z,14.60
2022-08-12T06:54:55.787Z,17.25
2022-08-12T06:58:05.549Z,17.15
2022-08-12T07:00:19.316Z,13.57
2022-08-12T07:02:49.060Z,13.68
2022-08-12T07:05:24.787Z,13.93
2022-08-12T07:08:12.909Z,14.00
2022-08-12T07:10:45.366Z,18.55
2022-08-12T07:13:15.203Z,19.80
2022-08-12T07:15:45.352Z,14.30
2022-08-12T07:18:19.939Z,14.07
2022-08-12T07:20:52.948Z,16.45
2022-08-12T07:23:25.522Z,14.23
2022-08-12T07:25:58.305Z,16.70
2022-08-12T07:28:31.056Z,16.63
2022-08-12T07:31:00.912Z,17.98
2022-08-12T07:33:32.926Z,14.43
2022-08-12T07:36:06.217Z,14.57
2022-08-12T07:38:42.350Z,17.60
2022-08-12T07:41:15.529Z,18.27
2022-08-12T07:43:47.422Z,14.77
2022-08-12T07:46:20.499Z,12.07
2022-08-12T07:48:52.345Z,14.70
2022-08-12T07:51:24.857Z,15.65
2022-08-12T07:54:00.749Z,15.02
2022-08-12T07:56:33.845Z,13.20
2022-08-12T07:59:04.772Z,14.52
2022-08-12T08:01:38.303Z,13.43
2022-08-12T08:04:23.123Z,13.85
2022-08-12T08:06:53.174Z,11.53
2022-08-12T08:09:26.829Z,8.32
2022-08-12T08:12:09.658Z,13.60
2022-08-12T08:14:51.981Z,10.98
2022-08-12T08:17:23.461Z,11.68
2022-08-12T08:20:03.733Z,15.43
2022-08-12T08:22:41.419Z,9.52
2022-08-12T08:25:36.315Z,9.35
2022-08-12T08:28:06.364Z,14.98
2022-08-12T08:30:38.350Z,7.90
2022-08-12T08:33:24.456Z,9.10
2022-08-12T08:36:00.877Z,13.07
2022-08-12T08:38:35.203Z,10.73
2022-08-12T08:42:16.578Z,8.40
2022-08-12T08:44:11.916Z,7.50
2022-08-12T08:46:43.951Z,7.90
2022-08-12T08:49:16.124Z,6.43
2022-08-12T08:51:48.328Z,12.07
2022-08-12T08:54:19.890Z,5.78
2022-08-12T08:56:54.026Z,7.07
2022-08-12T08:59:24.474Z,4.80
2022-08-12T09:01:54.505Z,5.57
2022-08-12T09:05:11.902Z,5.67
2022-08-12T09:10:04.034Z,6.18
2022-08-12T09:12:54.553Z,5.60
2022-08-12T09:15:35.665Z,7.30
2022-08-12T09:18:09.033Z,6.00
2022-08-12T09:20:40.182Z,4.40
2022-08-12T09:23:59.128Z,7.20
2022-08-12T09:26:04.902Z,7.25
2022-08-12T09:32:03.216Z,5.43
2022-08-12T09:34:26.181Z,10.52
2022-08-12T09:37:00.408Z,6.03
2022-08-12T09:40:05.197Z,5.50
2022-08-12T09:42:43.511Z,5.30
2022-08-12T09:46:06.329Z,5.88
2022-08-12T09:48:20.023Z,8.70
2022-08-12T09:50:55.604Z,7.38
2022-08-12T09:54:34.137Z,8.97
2022-08-12T09:56:58.244Z,8.70
2022-08-12T09:59:10.063Z,7.50
2022-08-12T10:02:41.928Z,3.95
2022-08-12T10:04:32.842Z,7.45
2022-08-12T10:07:03.075Z,5.25
2022-08-12T10:09:57.387Z,5.83
2022-08-12T10:12:37.426Z,7.50
2022-08-12T10:15:08.035Z,6.63
2022-08-12T10:18:05.965Z,6.70
2022-08-12T10:20:37.508Z,6.20
2022-08-12T10:23:07.242Z,5.25
2022-08-12T10:26:35.409Z,4.30
2022-08-12T10:29:02.811Z,9.63
2022-08-12T10:32:19.736Z,6.32
2022-08-12T10:34:27.042Z,5.97
2022-08-12T10:37:10.744Z,4.83
2022-08-12T10:40:01.022Z,4.60
2022-08-12T10:42:54.114Z,6.25
2022-08-12T10:45:23.976Z,5.83
2022-08-12T10:48:15.945Z,6.93
2022-08-12T10:51:01.500Z,6.55
2022-08-12T10:53:45.504Z,6.63
2022-08-12T10:56:17.171Z,6.18
2022-08-12T10:58:48.430Z,6.65
2022-08-12T11:01:49.294Z,5.10
2022-08-12T11:04:26.953Z,5.57
2022-08-12T11:08:37.848Z,5.45
2022-08-12T11:09:59.984Z,4.70
2022-08-12T11:12:54.986Z,7.60
2022-08-12T11:15:33.174Z,3.75
2022-08-12T11:18:17.846Z,8.07
2022-08-12T11:20:49.255Z,8.38
2022-08-12T11:23:37.135Z,5.25
2022-08-12T11:26:09.044Z,5.10
2022-08-12T11:28:39.946Z,9.55
2022-08-12T11:31:14.269Z,7.70
2022-08-12T11:34:05.706Z,6.03
2022-08-12T11:36:39.489Z,4.78
2022-08-12T11:39:13.075Z,5.20
2022-08-12T11:41:43.226Z,6.80
2022-08-12T11:44:36.812Z,6.20
2022-08-12T11:47:09.574Z,4.05
2022-08-12T11:49:39.475Z,5.40
2022-08-12T11:52:35.319Z,4.80
2022-08-12T11:55:01.616Z,3.78
2022-08-12T11:58:17.199Z,6.03
2022-08-12T12:02:01.267Z,3.85
2022-08-12T12:03:12.327Z,4.68
2022-08-12T12:05:46.978Z,6.57
2022-08-12T12:08:38.112Z,4.00
2022-08-12T12:11:14.971Z,4.70
2022-08-12T12:14:07.684Z,6.03
2022-08-12T12:16:38.312Z,4.68
2022-08-12T12:19:10.586Z,8.23
2022-08-12T12:21:47.376Z,7.95
2022-08-12T12:24:21.831Z,4.43
2022-08-12T12:27:00.411Z,6.70
2022-08-12T12:30:14.096Z,8.00
2022-08-12T12:32:28.962Z,3.95
2022-08-12T12:35:14.352Z,6.77
2022-08-12T12:38:03.616Z,4.55
2022-08-12T12:40:35.642Z,6.55
2022-08-12T12:43:13.774Z,3.27
2022-08-12T12:45:46.379Z,3.53
2022-08-12T12:48:17.737Z,3.80
2022-08-12T12:51:09.434Z,3.50
2022-08-12T12:54:08.845Z,5.80
2022-08-12T12:56:33.943Z,5.00
2022-08-12T12:59:07.608Z,6.40
2022-08-12T13:02:08.102Z,3.63
2022-08-12T13:04:38.780Z,3.65
2022-08-12T13:07:09.464Z,6.10
2022-08-12T13:09:39.227Z,6.10
2022-08-12T13:12:12.611Z,5.00
2022-08-12T13:14:45.003Z,6.03
2022-08-12T13:17:16.669Z,4.85
2022-08-12T13:19:49.957Z,4.00
2022-08-12T13:22:21.633Z,4.70
2022-08-12T13:24:56.929Z,3.63
2022-08-12T13:27:34.428Z,4.55
2022-08-12T13:30:11.565Z,8.35
2022-08-12T13:32:43.629Z,4.30
2022-08-12T13:35:33.223Z,5.40
2022-08-12T13:38:34.685Z,7.82
2022-08-12T13:41:11.039Z,3.70
2022-08-12T13:43:41.992Z,3.95
2022-08-12T13:46:16.515Z,4.72
2022-08-12T13:48:46.192Z,3.35
2022-08-12T13:51:21.028Z,5.07
2022-08-12T13:53:58.299Z,4.40
2022-08-12T13:56:34.673Z,7.20
2022-08-12T13:59:08.104Z,4.10
2022-08-12T14:01:41.313Z,7.43
2022-08-12T14:04:11.642Z,6.07
2022-08-12T14:06:41.966Z,3.55
2022-08-12T14:09:17.757Z,14.60
2022-08-12T14:11:58.356Z,7.75
2022-08-12T14:14:31.153Z,3.63
2022-08-12T14:17:10.374Z,6.15
2022-08-12T14:20:00.993Z,5.70
2022-08-12T14:22:32.112Z,6.15
2022-08-12T14:25:03.083Z,4.35
2022-08-12T14:28:03.255Z,2.95
2022-08-12T14:30:29.653Z,3.63
2022-08-12T14:33:03.431Z,7.35
2022-08-12T14:35:41.200Z,4.05
2022-08-12T14:38:26.183Z,5.75
2022-08-12T14:40:59.264Z,4.10
2022-08-12T14:43:58.734Z,5.63
2022-08-12T14:46:24.344Z,3.75
2022-08-12T14:48:57.023Z,5.93
2022-08-12T14:52:48.298Z,4.18
2022-08-12T14:57:19.870Z,4.90
2022-08-12T15:00:05.947Z,4.20
2022-08-12T15:02:35.746Z,4.20
2022-08-12T15:05:08.858Z,10.30
2022-08-12T15:07:49.957Z,4.80
2022-08-12T15:10:25.381Z,7.03
2022-08-12T15:13:07.213Z,6.63
2022-08-12T15:15:43.626Z,4.70
2022-08-12T15:18:20.845Z,4.10
2022-08-12T15:20:55.834Z,6.70
2022-08-12T15:23:32.765Z,8.65
2022-08-12T15:26:04.936Z,6.03
2022-08-12T15:28:37.026Z,8.23
2022-08-12T15:31:09.587Z,5.50
2022-08-12T15:33:58.172Z,5.30
2022-08-12T15:36:54.183Z,4.50
2022-08-12T15:39:20.187Z,3.40
2022-08-12T15:41:55.304Z,4.45
2022-08-12T15:44:38.022Z,6.13
2022-08-12T15:47:12.308Z,5.55
2022-08-12T15:50:00.015Z,5.22
2022-08-12T15:52:33.383Z,5.35
2022-08-12T15:55:06.346Z,5.05
2022-08-12T15:57:53.206Z,5.60
2022-08-12T16:00:33.105Z,3.30
2022-08-12T16:03:05.499Z,6.45
2022-08-12T16:06:17.020Z,3.95
2022-08-12T16:08:35.753Z,3.65
2022-08-12T16:11:16.089Z,6.13
2022-08-12T16:13:48.719Z,4.65
2022-08-12T16:16:23.501Z,5.28
2022-08-12T16:18:59.550Z,4.13
2022-08-12T16:21:52.682Z,4.40
2022-08-12T16:24:22.101Z,5.23
2022-08-12T16:26:54.149Z,2.65
2022-08-12T16:29:29.511Z,4.18
2022-08-12T16:32:23.924Z,3.90
2022-08-12T16:34:55.899Z,6.27
2022-08-12T16:38:04.783Z,5.90
2022-08-12T16:40:18.876Z,4.30
2022-08-12T16:42:53.982Z,3.40
2022-08-12T16:46:05.532Z,7.53
2022-08-12T16:48:34.972Z,6.53
2022-08-12T16:51:09.537Z,4.68
2022-08-12T16:53:44.419Z,8.05
2022-08-12T16:56:18.395Z,6.15
2022-08-12T16:58:52.114Z,7.10
2022-08-12T17:01:22.237Z,24.77
2022-08-12T17:04:04.558Z,8.27
2022-08-12T17:06:43.281Z,8.90
2022-08-12T17:09:17.719Z,4.63
2022-08-12T17:11:50.744Z,6.35
2022-08-12T17:14:23.472Z,7.13
2022-08-12T17:16:55.601Z,9.35
2022-08-12T17:19:54.666Z,3.70
2022-08-12T17:22:16.865Z,7.90
2022-08-12T17:24:55.884Z,5.53
2022-08-12T17:27:30.831Z,2.90
2022-08-12T17:30:04.826Z,5.65
2022-08-12T17:32:36.936Z,7.77
2022-08-12T17:35:20.638Z,6.50
2022-08-12T17:37:54.674Z,5.03
2022-08-12T17:40:36.332Z,5.35
2022-08-12T17:43:56.784Z,5.00
2022-08-12T17:46:02.027Z,3.85
2022-08-12T17:48:34.781Z,4.00
2022-08-12T17:51:15.517Z,4.25
2022-08-12T17:54:10.766Z,5.10
2022-08-12T17:56:39.332Z,3.03
2022-08-12T17:59:13.117Z,5.90
2022-08-12T18:01:46.128Z,5.30
2022-08-12T18:04:22.798Z,3.40
2022-08-12T18:07:06.199Z,10.75
2022-08-12T18:09:40.994Z,9.27
2022-08-12T18:12:26.916Z,7.40
2022-08-12T18:15:03.173Z,4.05
2022-08-12T18:17:40.970Z,3.40
2022-08-12T18:20:15.756Z,3.95
2022-08-12T18:22:46.760Z,5.25
2022-08-12T18:26:12.381Z,5.82
2022-08-12T18:28:30.857Z,5.63
2022-08-12T18:31:04.552Z,5.00
2022-08-12T18:33:44.013Z,6.32
2022-08-12T18:36:22.503Z,7.32
2022-08-12T18:38:59.495Z,8.07
2022-08-12T18:41:33.653Z,10.52
2022-08-12T18:44:09.424Z,9.48
2022-08-12T18:46:54.493Z,6.53
2022-08-12T18:49:33.391Z,10.60
2022-08-12T18:52:11.942Z,6.30
2022-08-12T18:54:48.970Z,3.38
2022-08-12T18:57:59.702Z,5.80
2022-08-12T19:00:21.046Z,7.75
2022-08-12T19:02:54.852Z,4.78
2022-08-12T19:05:45.803Z,6.00
2022-08-12T19:08:14.570Z,4.70
2022-08-12T19:10:48.073Z,6.60
2022-08-12T19:13:33.919Z,3.57
2022-08-12T19:16:12.602Z,7.22
2022-08-12T19:18:45.737Z,6.78
2022-08-12T19:21:20.187Z,3.60
2022-08-12T19:24:11.243Z,4.07
2022-08-12T19:26:38.825Z,6.18
2022-08-12T19:29:10.762Z,6.88
2022-08-12T19:31:57.449Z,5.43
2022-08-12T19:37:38.356Z,7.07
2022-08-12T19:40:30.809Z,10.90
2022-08-12T19:43:19.399Z,9.68
2022-08-12T19:45:53.726Z,9.18
2022-08-12T19:48:24.938Z,6.90
2022-08-12T19:51:08.622Z,9.63
2022-08-12T19:53:56.681Z,13.27
2022-08-12T19:56:28.110Z,8.48
2022-08-12T19:59:20.826Z,9.43
2022-08-12T20:02:02.563Z,10.50
2022-08-12T20:04:37.494Z,14.23
2022-08-12T20:07:23.331Z,8.90
2022-08-12T20:09:54.188Z,9.43
2022-08-12T20:12:31.732Z,8.20
2022-08-12T20:15:05.386Z,7.78
2022-08-12T20:17:36.398Z,4.45
2022-08-12T20:20:27.517Z,7.10
2022-08-12T20:23:00.638Z,7.05
2022-08-12T20:25:52.495Z,4.20
2022-08-12T20:28:28.797Z,7.43
2022-08-12T20:30:59.816Z,6.07
2022-08-12T20:33:32.599Z,7.20
2022-08-12T20:36:40.881Z,6.85
2022-08-12T20:39:35.978Z,6.27
2022-08-12T20:42:07.811Z,6.07
2022-08-12T20:44:40.247Z,5.65
2022-08-12T20:47:18.243Z,5.15
2022-08-12T20:49:55.649Z,5.15
2022-08-12T20:52:34.248Z,6.30
2022-08-12T20:55:17.118Z,4.95
2022-08-12T20:58:02.660Z,5.22
2022-08-12T21:00:34.871Z,4.85
2022-08-12T21:03:18.181Z,4.60
2022-08-12T21:06:12.300Z,5.73
2022-08-12T21:08:43.938Z,6.10
2022-08-12T21:11:19.552Z,3.90
2022-08-12T21:13:49.396Z,7.43
2022-08-12T21:16:35.538Z,4.95
2022-08-12T21:19:08.052Z,4.60
2022-08-12T21:21:50.287Z,8.40
2022-08-12T21:24:20.668Z,7.43
2022-08-12T21:27:07.349Z,5.60
2022-08-12T21:29:49.950Z,11.65
2022-08-12T21:32:47.061Z,3.40
2022-08-12T21:35:17.521Z,3.88
2022-08-12T21:37:53.225Z,4.25
2022-08-12T21:40:32.346Z,6.07
2022-08-12T21:43:10.065Z,6.13
2022-08-12T21:45:47.492Z,6.75
2022-08-12T21:48:30.551Z,5.80
2022-08-12T21:51:00.235Z,5.32
2022-08-12T21:54:06.091Z,4.10
2022-08-12T21:56:34.407Z,6.57
2022-08-12T21:59:14.411Z,4.70
2022-08-12T22:01:48.971Z,4.63
2022-08-12T22:04:32.227Z,8.45
2022-08-12T22:07:03.192Z,8.73
2022-08-12T22:09:42.664Z,5.63
2022-08-12T22:12:26.185Z,5.47
2022-08-12T22:14:59.624Z,4.47
2022-08-12T22:17:50.119Z,4.80
2022-08-12T22:20:21.828Z,3.30
2022-08-12T22:22:56.468Z,5.10
2022-08-12T22:25:27.756Z,4.15
2022-08-12T22:28:10.206Z,5.20
2022-08-12T22:31:01.121Z,6.07
2022-08-12T22:33:30.880Z,8.68
2022-08-12T22:36:28.796Z,4.55
2022-08-12T22:39:01.694Z,7.07
2022-08-12T22:41:43.824Z,6.50
2022-08-12T22:44:27.906Z,8.10
2022-08-12T22:47:12.844Z,7.55
2022-08-12T22:50:03.759Z,4.03
2022-08-12T22:52:35.127Z,4.40
2022-08-12T22:55:04.829Z,5.03
2022-08-12T22:57:49.824Z,5.07
2022-08-12T23:00:28.083Z,3.95
2022-08-12T23:03:03.335Z,4.30
2022-08-12T23:05:57.130Z,4.07
2022-08-12T23:08:30.177Z,6.50
2022-08-12T23:11:04.553Z,6.20
2022-08-12T23:13:48.658Z,6.28
2022-08-12T23:16:29.323Z,5.07
2022-08-12T23:19:10.443Z,3.90
2022-08-12T23:22:03.969Z,6.32
2022-08-12T23:24:55.654Z,4.18
2022-08-12T23:27:51.119Z,5.97
2022-08-12T23:30:32.320Z,4.35
2022-08-12T23:33:13.121Z,7.00
2022-08-12T23:35:59.347Z,7.00
2022-08-12T23:38:34.583Z,9.07
2022-08-12T23:41:05.684Z,8.00
2022-08-12T23:43:39.847Z,4.57
2022-08-12T23:46:11.662Z,5.60
2022-08-12T23:48:47.690Z,3.97
2022-08-12T23:51:25.236Z,6.80
2022-08-12T23:53:59.878Z,5.47
2022-08-12T23:56:33.639Z,6.28
2022-08-12T23:59:04.134Z,3.70
